Time;durP1;ratioP1;P1;durP2;ratioP2;P2;SDS_P1;SDS_P2;PMS_P1;PMS_P2;Temp;Humidity;BMP_temperature;BMP_pressure;BME280_temperature;BME280_humidity;BME280_pressure;Samples;Min_cycle;Max_cycle;Signal;HPM_P1;HPM_P2
2023/03/02 00:01:48;;;;;;;46.35;23.63;;;179.40;1920.00;;;;;;5076572;28;20032;-79
2023/03/02 00:04:19;;;;;;;43.55;22.95;;;179.40;2252.80;;;;;;5096679;28;20058;-79
2023/03/02 00:06:47;;;;;;;47.58;24.05;;;179.40;2252.80;;;;;;5095944;28;20385;-78
2023/03/02 00:09:13;;;;;;;46.63;24.83;;;179.40;2252.80;;;;;;5079774;28;20036;-79
2023/03/02 00:11:39;;;;;;;51.38;25.88;;;179.50;2252.80;;;;;;5076249;28;20034;-80
2023/03/02 00:14:05;;;;;;;46.95;24.73;;;179.50;2252.80;;;;;;5078674;28;20040;-79
2023/03/02 00:16:32;;;;;;;45.42;23.67;;;179.40;2252.80;;;;;;5096915;28;20016;-78
2023/03/02 00:18:57;;;;;;;45.38;24.13;;;179.40;2252.80;;;;;;5097126;28;20020;-78
2023/03/02 00:21:23;;;;;;;45.65;22.42;;;179.40;2252.80;;;;;;5078493;28;20507;-79
2023/03/02 00:23:50;;;;;;;43.42;22.65;;;179.40;2252.80;;;;;;5094842;28;20053;-79
2023/03/02 00:26:16;;;;;;;41.08;21.60;;;179.40;2252.80;;;;;;5089089;28;20032;-78
2023/03/02 00:28:42;;;;;;;37.55;19.70;;;179.40;2252.80;;;;;;5075116;28;20020;-79
2023/03/02 00:31:08;;;;;;;39.10;18.75;;;179.40;2252.80;;;;;;5078201;28;20078;-79
2023/03/02 00:33:33;;;;;;;36.17;18.35;;;179.30;2252.80;;;;;;5085938;28;20031;-78
2023/03/02 00:36:00;;;;;;;34.67;17.90;;;179.30;2252.80;;;;;;5097081;28;20028;-79
2023/03/02 00:38:26;;;;;;;33.78;17.98;;;179.30;2252.80;;;;;;5098264;28;20032;-78
2023/03/02 00:40:52;;;;;;;34.17;16.80;;;154.50;2252.80;;;;;;5098012;28;20032;-79
2023/03/02 00:43:18;;;;;;;36.22;17.23;;;179.30;2252.80;;;;;;5095930;28;20020;-79
2023/03/02 00:45:44;;;;;;;34.17;16.08;;;179.30;2252.80;;;;;;5095993;28;20544;-78
2023/03/02 00:48:09;;;;;;;32.25;16.10;;;179.30;2252.80;;;;;;5097067;28;20064;-80
2023/03/02 00:50:39;;;;;;;35.17;16.80;;;179.30;2252.80;;;;;;5096511;28;20470;-78
2023/03/02 00:53:09;;;;;;;33.83;17.55;;;179.30;2252.80;;;;;;5096546;28;20024;-79
2023/03/02 00:55:36;;;;;;;33.63;17.60;;;179.30;2252.80;;;;;;5096883;28;20102;-79
2023/03/02 00:58:03;;;;;;;35.20;16.40;;;179.20;2252.80;;;;;;5077583;28;20036;-78
2023/03/02 01:00:30;;;;;;;33.75;16.83;;;179.20;2252.80;;;;;;5094208;28;20024;-79
2023/03/02 01:02:57;;;;;;;34.40;17.08;;;179.30;2252.80;;;;;;5094590;28;20489;-77
2023/03/02 01:05:23;;;;;;;39.10;18.95;;;179.20;2252.80;;;;;;5097046;28;20035;-79
2023/03/02 01:07:49;;;;;;;35.63;18.20;;;179.30;2252.80;;;;;;5095942;28;20036;-79
2023/03/02 01:10:15;;;;;;;40.08;17.90;;;179.20;2252.80;;;;;;5097002;28;20056;-78
2023/03/02 01:12:41;;;;;;;39.00;18.65;;;179.20;2252.80;;;;;;5097015;28;20024;-79
2023/03/02 01:15:08;;;;;;;38.45;18.25;;;179.20;2252.80;;;;;;5097548;28;20024;-79
2023/03/02 01:17:33;;;;;;;43.38;20.15;;;179.20;2252.80;;;;;;5096746;28;20024;-79
2023/03/02 01:19:59;;;;;;;39.17;19.25;;;154.50;2252.80;;;;;;5094202;28;20039;-79
2023/03/02 01:22:25;;;;;;;38.30;19.15;;;179.20;2252.80;;;;;;5097341;28;20024;-79
2023/03/02 01:24:52;;;;;;;35.42;18.50;;;179.20;2252.80;;;;;;5095223;28;20062;-78
2023/03/02 01:27:18;;;;;;;35.78;18.40;;;179.20;2252.80;;;;;;5088335;28;20089;-78
2023/03/02 01:29:44;;;;;;;37.83;18.58;;;179.20;2252.80;;;;;;5096029;28;20087;-79
2023/03/02 01:32:10;;;;;;;35.70;18.55;;;179.20;2252.80;;;;;;5077361;28;20040;-79
2023/03/02 01:34:36;;;;;;;37.85;18.10;;;179.20;2252.80;;;;;;5095839;28;20127;-79
2023/03/02 01:37:01;;;;;;;36.00;17.65;;;179.20;2252.80;;;;;;5093472;28;20501;-79
2023/03/02 01:39:27;;;;;;;40.65;18.75;;;179.20;2252.80;;;;;;5097321;28;20024;-78
2023/03/02 01:41:54;;;;;;;38.50;18.25;;;154.50;2252.80;;;;;;5096446;28;20058;-78
2023/03/02 01:44:38;;;;;;;37.45;19.25;;;154.50;2252.80;;;;;;5096747;28;20024;-80
2023/03/02 01:47:12;;;;;;;38.30;19.10;;;154.50;2252.80;;;;;;5096801;28;20036;-79
2023/03/02 01:49:45;;;;;;;35.97;18.70;;;154.50;2252.80;;;;;;5095533;28;20028;-79
2023/03/02 01:52:12;;;;;;;40.40;19.73;;;154.50;2252.80;;;;;;5092933;28;20063;-78
2023/03/02 01:54:41;;;;;;;39.88;19.67;;;154.50;2252.80;;;;;;5095816;28;20028;-79
2023/03/02 01:57:08;;;;;;;41.15;19.15;;;154.40;2252.80;;;;;;5095495;28;20039;-78
2023/03/02 01:59:36;;;;;;;38.35;19.63;;;154.40;2252.80;;;;;;5095018;28;20464;-79
2023/03/02 02:02:06;;;;;;;43.20;19.92;;;154.40;2252.80;;;;;;5095894;28;20028;-79
2023/03/02 02:04:36;;;;;;;40.65;20.17;;;154.40;2252.80;;;;;;5095701;28;20032;-79
2023/03/02 02:07:05;;;;;;;37.97;19.05;;;154.40;2252.80;;;;;;5096131;28;20099;-80
2023/03/02 02:09:51;;;;;;;39.80;21.60;;;154.40;2252.80;;;;;;5091948;28;20016;-79
2023/03/02 02:12:20;;;;;;;44.17;24.35;;;154.30;1920.00;;;;;;5095374;28;20118;-79
2023/03/02 02:14:47;;;;;;;41.90;20.85;;;154.30;2252.80;;;;;;5096845;28;20024;-79
2023/03/02 02:17:15;;;;;;;38.85;19.67;;;154.30;2252.80;;;;;;5077279;28;20039;-79
2023/03/02 02:20:07;;;;;;;41.40;19.23;;;154.40;2252.80;;;;;;5096753;28;20044;-80
2023/03/02 02:22:50;;;;;;;37.15;17.83;;;154.40;2252.80;;;;;;5095880;28;20091;-79
2023/03/02 02:25:33;;;;;;;37.63;18.30;;;154.30;2252.80;;;;;;5088740;28;20049;-79
2023/03/02 02:27:59;;;;;;;39.30;18.08;;;154.30;2252.80;;;;;;5074280;28;20537;-79
2023/03/02 02:30:26;;;;;;;38.92;18.67;;;154.20;2252.80;;;;;;5076034;28;20143;-79
2023/03/02 02:32:54;;;;;;;38.30;18.50;;;154.10;2252.80;;;;;;5076199;28;20117;-79
2023/03/02 02:35:26;;;;;;;39.70;18.65;;;154.10;2252.80;;;;;;5075740;28;20020;-79
2023/03/02 02:37:55;;;;;;;40.92;18.58;;;154.00;2252.80;;;;;;5074731;28;20074;-79
2023/03/02 02:40:40;;;;;;;41.47;18.05;;;154.00;2252.80;;;;;;5082981;28;20020;-79
2023/03/02 02:43:06;;;;;;;;;;;154.00;2252.80;;;;;;5095201;28;20032;-79
2023/03/02 02:45:32;;;;;;;42.13;19.13;;;154.00;2252.80;;;;;;5094815;28;19912;-78
2023/03/02 02:47:58;;;;;;;42.80;19.63;;;154.00;2252.80;;;;;;5075979;28;20028;-79
2023/03/02 02:50:30;;;;;;;42.97;20.17;;;154.00;2252.80;;;;;;5094406;28;20035;-79
2023/03/02 02:53:39;;;;;;;43.72;19.95;;;154.00;2252.80;;;;;;5094231;28;20080;-79
2023/03/02 02:56:07;;;;;;;39.50;18.35;;;154.00;2252.80;;;;;;5031818;28;20072;-79
2023/03/02 02:58:36;;;;;;;40.50;18.30;;;154.00;2252.80;;;;;;5014975;28;20156;-79
2023/03/02 03:01:02;;;;;;;44.03;19.58;;;154.00;2252.80;;;;;;5031758;28;20041;-79
2023/03/02 03:03:35;;;;;;;44.42;20.08;;;154.00;2252.80;;;;;;5032960;28;20083;-79
2023/03/02 03:06:06;;;;;;;46.70;19.80;;;154.00;2252.80;;;;;;5034243;28;20033;-79
2023/03/02 03:08:43;;;;;;;42.75;19.17;;;153.90;2252.80;;;;;;5035114;28;20041;-79
2023/03/02 03:11:11;;;;;;;47.25;20.90;;;153.90;2252.80;;;;;;5031434;28;20106;-79
2023/03/02 03:13:39;;;;;;;44.95;20.42;;;153.80;2252.80;;;;;;5034759;28;20041;-79
2023/03/02 03:16:08;;;;;;;43.00;19.42;;;153.80;2252.80;;;;;;5018174;28;20025;-79
2023/03/02 03:18:34;;;;;;;49.53;21.42;;;153.90;2252.80;;;;;;5035083;28;20053;-78
2023/03/02 03:21:00;;;;;;;46.95;21.08;;;153.80;2252.80;;;;;;5018862;28;20503;-79
2023/03/02 03:23:25;;;;;;;45.13;20.23;;;153.80;2252.80;;;;;;5033977;28;20025;-79
2023/03/02 03:25:51;;;;;;;48.30;20.65;;;153.80;2252.80;;;;;;5034796;28;20470;-79
2023/03/02 03:28:17;;;;;;;48.15;20.45;;;153.80;2252.80;;;;;;5033538;28;20546;-79
2023/03/02 03:30:43;;;;;;;50.65;21.70;;;153.90;2252.80;;;;;;5035658;28;20017;-79
2023/03/02 03:33:09;;;;;;;47.08;20.17;;;153.90;2252.80;;;;;;5089562;28;20040;-79
2023/03/02 03:35:39;;;;;;;44.78;19.73;;;153.80;2252.80;;;;;;5096716;28;20016;-79
2023/03/02 03:38:06;;;;;;;48.80;21.83;;;153.80;2252.80;;;;;;5096512;28;20024;-79
2023/03/02 03:40:33;;;;;;;48.97;21.55;;;153.80;2252.80;;;;;;5096246;28;20028;-79
2023/03/02 03:43:02;;;;;;;47.30;20.13;;;153.80;2252.80;;;;;;5094863;28;20114;-79
2023/03/02 03:45:28;;;;;;;47.95;21.48;;;153.70;2252.80;;;;;;5094946;28;20028;-80
2023/03/02 03:47:54;;;;;;;45.08;20.25;;;153.70;2252.80;;;;;;5096009;28;20032;-79
2023/03/02 03:50:20;;;;;;;52.08;21.40;;;153.70;2252.80;;;;;;5097615;28;20039;-80
2023/03/02 03:52:46;;;;;;;47.35;20.10;;;153.70;2252.80;;;;;;5079229;28;20496;-79
2023/03/02 03:55:13;;;;;;;45.95;19.98;;;153.70;2252.80;;;;;;5079952;28;20024;-78
2023/03/02 03:57:39;;;;;;;45.95;20.13;;;153.70;2252.80;;;;;;5097967;28;20046;-79
2023/03/02 04:00:09;;;;;;;47.28;20.23;;;153.70;2252.80;;;;;;5091079;28;20017;-78
2023/03/02 04:02:36;;;;;;;50.95;19.98;;;153.60;2252.80;;;;;;5060371;28;20032;-78
2023/03/02 04:05:05;;;;;;;51.22;21.55;;;153.60;2252.80;;;;;;5077632;28;20100;-78
2023/03/02 04:07:32;;;;;;;47.00;20.27;;;153.70;2252.80;;;;;;5074146;28;20040;-79
2023/03/02 04:10:02;;;;;;;49.72;21.40;;;179.20;2252.80;;;;;;5097155;28;20101;-80
2023/03/02 04:12:31;;;;;;;50.03;21.35;;;153.70;2252.80;;;;;;5097079;28;20096;-79
2023/03/02 04:14:57;;;;;;;48.72;20.90;;;153.70;2252.80;;;;;;5096750;28;20055;-79
2023/03/02 04:17:23;;;;;;;47.10;20.60;;;153.70;2252.80;;;;;;5094562;28;20491;-79
2023/03/02 04:19:49;;;;;;;46.67;20.35;;;153.70;2252.80;;;;;;5097061;28;20039;-79
2023/03/02 04:22:15;;;;;;;47.42;19.83;;;153.70;2252.80;;;;;;5097526;28;20024;-79
2023/03/02 04:24:42;;;;;;;44.42;20.08;;;128.90;2252.80;;;;;;5096975;28;20039;-80
2023/03/02 04:27:08;;;;;;;46.25;20.23;;;153.70;2252.80;;;;;;5078339;28;20075;-79
2023/03/02 04:29:34;;;;;;;45.58;19.55;;;153.70;2252.80;;;;;;5077540;28;20042;-79
2023/03/02 04:32:00;;;;;;;44.53;20.45;;;153.70;2252.80;;;;;;5076838;28;20035;-78
2023/03/02 04:34:26;;;;;;;45.05;19.70;;;153.70;2252.80;;;;;;5090742;28;20028;-79
2023/03/02 04:36:52;;;;;;;43.58;18.98;;;153.70;2252.80;;;;;;5097606;28;20130;-79
2023/03/02 04:39:19;;;;;;;45.60;20.02;;;153.80;2252.80;;;;;;5097074;28;20020;-79
2023/03/02 04:41:46;;;;;;;45.58;20.50;;;153.80;2252.80;;;;;;5096682;28;20016;-79
2023/03/02 04:44:13;;;;;;;48.95;20.20;;;153.80;2252.80;;;;;;5096938;28;20079;-79
2023/03/02 04:46:38;;;;;;;45.72;20.20;;;153.80;2252.80;;;;;;5096039;28;20039;-80
2023/03/02 04:49:05;;;;;;;44.80;19.55;;;153.80;2252.80;;;;;;5096610;28;20036;-78
2023/03/02 04:51:35;;;;;;;45.80;19.90;;;153.70;2252.80;;;;;;5094426;28;20028;-79
2023/03/02 04:54:04;;;;;;;45.33;19.60;;;153.70;2252.80;;;;;;5096682;28;20373;-79
2023/03/02 04:56:30;;;;;;;42.70;18.98;;;153.70;2252.80;;;;;;5078239;28;20024;-79
2023/03/02 04:58:57;;;;;;;43.35;18.77;;;153.60;2252.80;;;;;;5096236;28;20050;-79
2023/03/02 05:01:23;;;;;;;46.75;19.85;;;153.60;2252.80;;;;;;5096147;28;20020;-78
2023/03/02 05:03:49;;;;;;;43.92;20.13;;;153.60;2252.80;;;;;;5095539;28;20028;-79
2023/03/02 05:06:15;;;;;;;44.70;19.13;;;153.70;2252.80;;;;;;5096618;28;20404;-79
2023/03/02 05:08:42;;;;;;;44.88;19.05;;;153.70;2252.80;;;;;;5066700;28;20040;-79
2023/03/02 05:11:09;;;;;;;44.08;18.77;;;153.70;2252.80;;;;;;5076088;28;20084;-79
2023/03/02 05:13:35;;;;;;;42.15;18.70;;;153.80;2252.80;;;;;;5075906;28;20028;-78
2023/03/02 05:16:01;;;;;;;41.63;18.42;;;153.80;2252.80;;;;;;5075828;28;20029;-79
2023/03/02 05:18:27;;;;;;;45.03;19.08;;;153.80;2252.80;;;;;;5075555;28;20021;-79
2023/03/02 05:20:53;;;;;;;39.13;18.05;;;153.90;2252.80;;;;;;5074998;28;20100;-79
2023/03/02 05:23:23;;;;;;;42.75;18.45;;;179.40;2252.80;;;;;;5097300;28;20053;-79
2023/03/02 05:25:54;;;;;;;47.78;21.27;;;153.70;2252.80;;;;;;5084169;28;20031;-79
2023/03/02 05:28:22;;;;;;;47.65;22.10;;;153.70;2252.80;;;;;;5076585;28;20039;-79
2023/03/02 05:30:48;;;;;;;47.90;22.85;;;153.70;2252.80;;;;;;5076819;28;20020;-79
2023/03/02 05:33:15;;;;;;;46.70;21.67;;;153.70;2252.80;;;;;;5088828;28;20076;-79
2023/03/02 05:35:41;;;;;;;48.65;21.63;;;153.70;2252.80;;;;;;5092741;28;20028;-79
2023/03/02 05:38:07;;;;;;;79.53;39.38;;;153.70;2252.80;;;;;;5086232;28;20026;-79
2023/03/02 05:40:34;;;;;;;47.03;21.27;;;153.70;2252.80;;;;;;5095229;28;20107;-78
2023/03/02 05:43:00;;;;;;;66.55;33.05;;;153.70;2252.80;;;;;;5091768;28;20103;-79
2023/03/02 05:45:37;;;;;;;65.88;33.63;;;153.70;2252.80;;;;;;5096307;28;20051;-78
2023/03/02 05:48:04;;;;;;;55.50;28.65;;;153.70;2252.80;;;;;;5111486;28;20052;-79
2023/03/02 05:50:30;;;;;;;49.17;24.05;;;153.70;2252.80;;;;;;5094703;28;20093;-79
2023/03/02 05:52:57;;;;;;;64.22;32.13;;;153.70;2252.80;;;;;;5095663;28;20028;-79
2023/03/02 05:55:23;;;;;;;52.53;23.83;;;153.70;2252.80;;;;;;5094573;28;20032;-79
2023/03/02 05:57:49;;;;;;;81.10;43.00;;;153.80;2252.80;;;;;;5090994;28;20024;-78
2023/03/02 06:00:16;;;;;;;66.70;32.17;;;153.70;2252.80;;;;;;5094102;28;20036;-78
2023/03/02 06:02:42;;;;;;;155.18;72.72;;;153.70;2252.80;;;;;;5092415;28;20024;-79
2023/03/02 06:05:10;;;;;;;56.17;23.27;;;153.70;2252.80;;;;;;5092486;28;20514;-78
2023/03/02 06:07:36;;;;;;;51.72;21.30;;;153.80;2252.80;;;;;;5073371;28;20028;-79
2023/03/02 06:10:02;;;;;;;52.95;25.00;;;153.70;2252.80;;;;;;5093062;28;20070;-79
2023/03/02 06:12:28;;;;;;;47.65;21.08;;;153.70;2252.80;;;;;;5072186;28;20040;-79
2023/03/02 06:14:54;;;;;;;50.00;20.92;;;153.70;2252.80;;;;;;5085870;28;20020;-79
2023/03/02 06:17:19;;;;;;;46.10;19.17;;;153.80;2252.80;;;;;;5071251;28;20044;-78
2023/03/02 06:19:45;;;;;;;48.30;20.73;;;153.80;2252.80;;;;;;5091331;28;20477;-79
2023/03/02 06:22:11;;;;;;;58.72;25.27;;;153.90;2252.80;;;;;;5070419;28;20082;-78
2023/03/02 06:24:36;;;;;;;52.17;22.33;;;153.90;2252.80;;;;;;5090838;28;20028;-78
2023/03/02 06:27:02;;;;;;;53.58;21.55;;;153.90;2252.80;;;;;;5071322;28;20105;-78
2023/03/02 06:29:28;;;;;;;50.15;21.27;;;154.00;2252.80;;;;;;5093025;28;20023;-79
2023/03/02 06:31:54;;;;;;;48.03;20.58;;;154.20;2252.80;;;;;;5085236;28;20050;-79
2023/03/02 06:34:19;;;;;;;44.85;20.27;;;154.00;2252.80;;;;;;5080415;28;20025;-78
2023/03/02 06:36:45;;;;;;;51.83;21.33;;;154.00;2252.80;;;;;;5091962;28;20024;-79
2023/03/02 06:39:14;;;;;;;44.63;19.30;;;154.10;2252.80;;;;;;5096159;28;20031;-78
2023/03/02 06:41:44;;;;;;;44.95;20.15;;;154.10;2252.80;;;;;;5095951;28;20384;-79
2023/03/02 06:44:10;;;;;;;40.72;18.52;;;154.10;2252.80;;;;;;5096702;28;20536;-79
2023/03/02 06:46:37;;;;;;;42.05;18.40;;;154.10;2252.80;;;;;;5094232;28;20028;-78
2023/03/02 06:49:03;;;;;;;39.08;17.85;;;154.30;2252.80;;;;;;5093886;28;20026;-79
2023/03/02 06:51:29;;;;;;;39.05;18.27;;;154.10;2252.80;;;;;;5096360;28;20038;-79
2023/03/02 06:53:55;;;;;;;39.75;18.00;;;154.20;2252.80;;;;;;5096105;28;20020;-79
2023/03/02 06:56:21;;;;;;;44.10;18.63;;;154.20;2252.80;;;;;;5096136;28;20054;-79
2023/03/02 06:58:46;;;;;;;37.05;17.27;;;154.20;2252.80;;;;;;5070221;28;20028;-79
2023/03/02 07:01:12;;;;;;;43.30;18.60;;;154.10;2252.80;;;;;;5076975;28;20036;-79
2023/03/02 07:03:38;;;;;;;41.10;18.50;;;154.20;2252.80;;;;;;5080324;28;20065;-79
2023/03/02 07:06:04;;;;;;;44.22;21.45;;;154.20;2252.80;;;;;;5097011;28;20020;-79
2023/03/02 07:08:30;;;;;;;65.75;30.23;;;154.30;2252.80;;;;;;5096163;28;20054;-79
2023/03/02 07:10:56;;;;;;;48.63;22.58;;;154.40;2252.80;;;;;;5078221;28;20039;-78
2023/03/02 07:13:21;;;;;;;48.20;22.35;;;154.50;2252.80;;;;;;5096918;28;20024;-79
2023/03/02 07:15:47;;;;;;;49.17;23.45;;;154.50;2252.80;;;;;;5080178;28;20473;-79
2023/03/02 07:18:13;;;;;;;44.72;21.48;;;179.20;2252.80;;;;;;5098140;28;20046;-79
2023/03/02 07:20:39;;;;;;;45.25;20.63;;;179.20;2252.80;;;;;;5095528;28;20044;-79
2023/03/02 07:23:05;;;;;;;48.50;22.58;;;179.20;2252.80;;;;;;5098329;28;20032;-79
2023/03/02 07:25:31;;;;;;;43.33;21.17;;;179.30;2252.80;;;;;;5098351;28;20020;-78
2023/03/02 07:27:57;;;;;;;50.92;26.00;;;179.30;2252.80;;;;;;5097928;28;20056;-78
2023/03/02 07:30:23;;;;;;;54.92;29.13;;;179.20;2252.80;;;;;;5099416;28;20056;-78
2023/03/02 07:32:50;;;;;;;52.10;29.52;;;179.20;2252.80;;;;;;5098042;28;20020;-79
2023/03/02 07:35:16;;;;;;;52.90;29.45;;;154.10;2252.80;;;;;;5078273;28;20047;-79
2023/03/02 07:37:42;;;;;;;48.20;27.80;;;154.50;2252.80;;;;;;5096430;28;20020;-79
2023/03/02 07:40:10;;;;;;;55.15;29.80;;;154.40;2252.80;;;;;;5097535;28;20114;-79
2023/03/02 07:42:36;;;;;;;47.05;24.52;;;154.40;2252.80;;;;;;5097703;28;20024;-78
2023/03/02 07:45:03;;;;;;;51.60;28.30;;;154.30;2252.80;;;;;;5097210;28;20052;-79
2023/03/02 07:47:29;;;;;;;43.28;22.75;;;154.30;2252.80;;;;;;5096765;28;20040;-79
2023/03/02 07:49:55;;;;;;;50.80;27.77;;;154.30;2252.80;;;;;;5096980;28;20020;-79
2023/03/02 07:52:21;;;;;;;46.30;26.02;;;154.20;2252.80;;;;;;5096345;28;20028;-78
2023/03/02 07:54:47;;;;;;;47.15;23.90;;;154.20;2252.80;;;;;;5094142;28;20480;-79
2023/03/02 07:57:15;;;;;;;47.53;24.90;;;154.20;2252.80;;;;;;5097316;28;20070;-79
2023/03/02 07:59:41;;;;;;;43.13;23.33;;;154.20;2252.80;;;;;;5098333;28;19904;-79
2023/03/02 08:02:27;;;;;;;45.38;24.08;;;154.10;2252.80;;;;;;5080802;28;20020;-80
2023/03/02 08:04:53;;;;;;;45.70;24.52;;;154.10;2252.80;;;;;;5096574;28;20542;-79
2023/03/02 08:07:19;;;;;;;44.90;23.67;;;154.10;2252.80;;;;;;5076252;28;20036;-79
2023/03/02 08:09:44;;;;;;;51.95;27.67;;;154.00;2252.80;;;;;;5096556;28;20374;-79
2023/03/02 08:12:10;;;;;;;57.25;31.73;;;154.00;2252.80;;;;;;5096722;28;20035;-79
2023/03/02 08:14:37;;;;;;;54.78;27.98;;;154.00;2252.80;;;;;;5096053;28;20028;-79
2023/03/02 08:17:06;;;;;;;49.97;26.45;;;154.10;2252.80;;;;;;5095205;28;20032;-79
2023/03/02 08:19:32;;;;;;;54.95;28.85;;;154.10;2252.80;;;;;;5096664;28;20020;-79
2023/03/02 08:21:59;;;;;;;53.25;27.23;;;154.10;2252.80;;;;;;5096482;28;20038;-79
2023/03/02 08:24:25;;;;;;;50.53;27.08;;;154.00;2252.80;;;;;;5093397;28;20053;-78
2023/03/02 08:26:51;;;;;;;53.08;28.33;;;154.00;2252.80;;;;;;5111739;28;20036;-79
2023/03/02 08:29:17;;;;;;;50.38;25.65;;;154.00;2252.80;;;;;;5078734;28;20304;-78
2023/03/02 08:31:43;;;;;;;57.72;29.35;;;153.90;2252.80;;;;;;5095153;28;20088;-79
2023/03/02 08:34:09;;;;;;;65.00;34.65;;;153.80;2252.80;;;;;;5095562;28;20103;-79
2023/03/02 08:36:34;;;;;;;61.75;34.75;;;153.80;2252.80;;;;;;5083987;28;20466;-79
2023/03/02 08:39:00;;;;;;;58.10;32.47;;;153.70;2252.80;;;;;;5095333;28;20068;-78
2023/03/02 08:41:26;;;;;;;56.90;30.35;;;153.70;2252.80;;;;;;5072294;28;20051;-79
2023/03/02 08:43:54;;;;;;;56.10;31.38;;;153.60;2252.80;;;;;;5094313;28;20028;-79
2023/03/02 08:46:20;;;;;;;54.50;31.58;;;128.90;2252.80;;;;;;5091586;28;20039;-78
2023/03/02 08:48:48;;;;;;;80.20;45.95;;;128.80;2252.80;;;;;;5095535;28;20047;-79
2023/03/02 08:51:23;;;;;;;49.88;27.98;;;128.80;2252.80;;;;;;5081624;28;20040;-79
2023/03/02 08:53:50;;;;;;;46.00;26.70;;;128.80;2252.80;;;;;;5091017;28;19904;-79
2023/03/02 08:56:25;;;;;;;48.05;26.10;;;128.80;2252.80;;;;;;5094029;28;20036;-79
2023/03/02 08:58:53;;;;;;;58.45;30.88;;;128.90;2252.80;;;;;;5072689;28;20336;-79
2023/03/02 09:01:24;;;;;;;49.20;25.48;;;128.80;2252.80;;;;;;5082348;28;19909;-79
2023/03/02 09:03:51;;;;;;;69.13;32.53;;;128.80;2252.80;;;;;;5082500;28;19912;-79
2023/03/02 09:06:17;;;;;;;58.70;30.67;;;128.80;2252.80;;;;;;5089449;28;19912;-79
2023/03/02 09:08:44;;;;;;;65.20;32.08;;;128.90;2252.80;;;;;;5096541;28;19924;-79
2023/03/02 09:11:09;;;;;;;56.40;31.73;;;128.80;2252.80;;;;;;5095510;28;19969;-78
2023/03/02 09:13:35;;;;;;;51.67;27.13;;;154.00;2252.80;;;;;;5091757;28;20016;-79
2023/03/02 09:16:02;;;;;;;56.05;30.08;;;128.80;2252.80;;;;;;5093901;28;20039;-79
2023/03/02 09:18:29;;;;;;;47.47;26.17;;;128.80;2252.80;;;;;;5094370;28;20031;-79
2023/03/02 09:20:56;;;;;;;48.67;27.45;;;128.70;2252.80;;;;;;5093609;28;20051;-78
2023/03/02 09:23:23;;;;;;;55.47;30.08;;;128.70;2252.80;;;;;;5092794;28;20028;-79
2023/03/02 09:25:49;;;;;;;56.88;29.95;;;128.70;2252.80;;;;;;5107433;28;20031;-79
2023/03/02 09:28:16;;;;;;;53.72;28.13;;;128.60;2252.80;;;;;;5103921;28;20427;-80
2023/03/02 09:30:47;;;;;;;59.10;30.67;;;128.60;2252.80;;;;;;5093995;28;20107;-79
2023/03/02 09:33:15;;;;;;;61.50;32.88;;;128.70;2252.80;;;;;;5093136;28;20046;-79
2023/03/02 09:35:41;;;;;;;57.03;29.52;;;128.60;2252.80;;;;;;5092895;28;20058;-80
2023/03/02 09:38:06;;;;;;;57.25;29.05;;;128.70;2252.80;;;;;;5078779;28;20028;-79
2023/03/02 09:40:41;;;;;;;59.67;30.50;;;128.60;2252.80;;;;;;5096406;28;20016;-80
2023/03/02 09:43:10;;;;;;;52.53;27.58;;;128.60;2252.80;;;;;;5077994;28;20115;-79
2023/03/02 09:46:15;;;;;;;59.35;30.33;;;128.60;2252.80;;;;;;5088945;28;19907;-78
2023/03/02 09:48:59;;;;;;;54.85;29.55;;;128.60;2252.80;;;;;;5091765;28;20028;-78
2023/03/02 09:51:38;;;;;;;59.45;30.25;;;128.60;2252.80;;;;;;5087008;28;19918;-78
2023/03/02 09:54:11;;;;;;;48.75;25.17;;;128.60;2252.80;;;;;;5087693;28;20040;-79
2023/03/02 09:56:51;;;;;;;48.75;25.40;;;128.60;2252.80;;;;;;5093640;28;20038;-78
2023/03/02 09:59:17;;;;;;;57.38;29.33;;;128.60;2252.80;;;;;;5078914;28;20024;-78
2023/03/02 10:01:53;;;;;;;63.70;32.50;;;128.60;2252.80;;;;;;5092844;28;20084;-78
2023/03/02 10:04:21;;;;;;;62.90;33.28;;;128.60;2252.80;;;;;;5089943;28;20025;-79
2023/03/02 10:07:09;;;;;;;79.03;39.42;;;128.70;2252.80;;;;;;5091292;28;20024;-78
2023/03/02 10:09:35;;;;;;;76.70;39.67;;;128.80;2252.80;;;;;;5090553;28;19927;-79
2023/03/02 10:12:38;;;;;;;68.50;33.50;;;128.80;2252.80;;;;;;5093287;28;20473;-79
2023/03/02 10:15:13;;;;;;;57.42;28.27;;;128.70;2252.80;;;;;;5095150;28;20038;-78
2023/03/02 10:17:50;;;;;;;;;;;128.80;2252.80;;;;;;5097245;28;20108;-77
2023/03/02 10:20:40;;;;;;;67.65;37.15;;;128.80;2252.80;;;;;;5095166;28;19916;-78
2023/03/02 10:23:06;;;;;;;55.55;30.27;;;128.90;2252.80;;;;;;5086932;28;20414;-78
2023/03/02 10:26:00;;;;;;;60.83;32.08;;;128.90;2252.80;;;;;;5084654;28;20024;-78
2023/03/02 10:28:31;;;;;;;89.05;43.65;;;153.60;2252.80;;;;;;5094598;28;20044;-77
2023/03/02 10:31:05;;;;;;;147.75;62.40;;;153.60;2252.80;;;;;;5094675;28;20028;-78
2023/03/02 10:33:32;;;;;;;135.93;64.05;;;153.70;2252.80;;;;;;5094450;28;19923;-78
2023/03/02 10:35:59;;;;;;;88.85;46.65;;;153.70;2252.80;;;;;;5095307;28;19912;-80
2023/03/02 10:38:28;;;;;;;75.25;42.75;;;153.70;2252.80;;;;;;5092355;28;20032;-78
2023/03/02 10:41:00;;;;;;;56.50;31.55;;;153.90;2252.80;;;;;;5095889;28;20024;-79
2023/03/02 10:43:35;;;;;;;71.97;39.83;;;153.80;2252.80;;;;;;5076763;28;20078;-78
2023/03/02 10:46:08;;;;;;;59.25;32.40;;;153.90;2252.80;;;;;;5095681;28;20024;-78
2023/03/02 10:48:52;;;;;;;61.88;34.28;;;154.00;2252.80;;;;;;5073007;28;20123;-77
2023/03/02 10:51:24;;;;;;;65.28;37.08;;;154.00;2252.80;;;;;;5087054;28;20024;-77
2023/03/02 10:54:02;;;;;;;73.93;43.75;;;154.10;2252.80;;;;;;5076413;28;20081;-77
2023/03/02 10:56:29;;;;;;;73.90;39.03;;;154.20;2252.80;;;;;;5073904;28;19908;-79
2023/03/02 10:59:01;;;;;;;91.50;46.53;;;154.20;2252.80;;;;;;5094899;28;20115;-78
2023/03/02 11:01:29;;;;;;;80.32;40.38;;;154.30;2252.80;;;;;;5095351;28;20031;-79
2023/03/02 11:04:00;;;;;;;84.13;39.08;;;154.30;2252.80;;;;;;5095733;28;20060;-79
2023/03/02 11:06:28;;;;;;;68.35;33.38;;;154.30;2252.80;;;;;;5073541;28;20017;-79
2023/03/02 11:09:05;;;;;;;82.70;40.33;;;154.40;2252.80;;;;;;5095216;28;20650;-77
2023/03/02 11:11:31;;;;;;;100.85;48.15;;;154.50;2252.80;;;;;;5095645;28;19904;-78
2023/03/02 11:14:26;;;;;;;116.85;52.75;;;154.50;2252.80;;;;;;5095292;28;20116;-77
2023/03/02 11:16:53;;;;;;;96.72;45.45;;;179.20;2252.80;;;;;;5015199;28;20037;-78
2023/03/02 11:19:30;;;;;;;112.28;50.92;;;154.50;2252.80;;;;;;5037157;28;20033;-78
2023/03/02 11:21:59;;;;;;;123.78;54.22;;;179.20;2252.80;;;;;;5040649;28;20045;-78
2023/03/02 11:24:34;;;;;;;149.70;66.03;;;179.30;2252.80;;;;;;5038286;28;20403;-78
2023/03/02 11:27:02;;;;;;;77.93;36.33;;;179.40;2252.80;;;;;;5018755;28;20041;-78
2023/03/02 11:29:36;;;;;;;99.65;45.10;;;179.30;2252.80;;;;;;5033813;28;19967;-78
2023/03/02 11:32:11;;;;;;;84.13;35.28;;;179.40;2252.80;;;;;;5039153;28;20109;-78
2023/03/02 11:34:48;;;;;;;84.80;40.70;;;179.40;2252.80;;;;;;5029900;28;20121;-78
2023/03/02 11:37:38;;;;;;;54.60;26.13;;;179.60;2252.80;;;;;;5029864;28;20033;-77
2023/03/02 11:40:28;;;;;;;60.90;30.98;;;179.50;2252.80;;;;;;5015105;28;20111;-77
2023/03/02 11:42:56;;;;;;;59.33;29.33;;;179.50;2252.80;;;;;;5032808;28;20033;-78
2023/03/02 11:45:28;;;;;;;57.60;27.73;;;179.60;2252.80;;;;;;5032051;28;20031;-78
2023/03/02 11:48:06;;;;;;;50.25;27.48;;;179.50;2252.80;;;;;;5032081;28;20046;-78
2023/03/02 11:50:35;;;;;;;51.58;25.58;;;179.60;2252.80;;;;;;5032659;28;20064;-78
2023/03/02 11:53:05;;;;;;;53.65;26.23;;;179.60;2252.80;;;;;;5057543;28;20039;-78
2023/03/02 11:55:39;;;;;;;47.15;24.33;;;179.60;2252.80;;;;;;5092592;28;20120;-78
2023/03/02 11:58:05;;;;;;;48.33;25.77;;;179.50;2252.80;;;;;;5076736;28;20039;-77
2023/03/02 12:00:36;;;;;;;47.33;26.20;;;179.60;2252.80;;;;;;5093858;28;20036;-78
2023/03/02 12:03:07;;;;;;;53.67;30.42;;;179.50;2252.80;;;;;;5093357;28;20074;-77
2023/03/02 12:05:37;;;;;;;45.63;27.10;;;179.60;2252.80;;;;;;5092198;28;20024;-77
2023/03/02 12:08:18;;;;;;;41.70;21.10;;;179.50;2252.80;;;;;;5093391;28;20044;-77